KCIU/CIU METAR and TAF weather

Enter ICAO airport designator
Station Type Date Time Source
KCIU METAR 2018/07/21 22:56 UTC NOAA

KCIU 212256Z AUTO 07004KT 10SM -RA SCT033 BKN042 21/19 A2995 RMK AO2 SLP159 T02110194 PNO $


Station Type Date Time Source
KCIU Decoded METAR 2018/07/21 22:56 UTC NOAA

Sault Ste Marie, Chippewa County International Airport, MI, United States (KCIU) 46-15N 084-28W
Jul 21, 2018 - 06:56 PM EDT / 2018.07.21 2256 UTC
Wind: from the ENE (070 degrees) at 5 MPH (4 KT):0
Visibility: 10 mile(s):0
Sky conditions: mostly cloudy
Weather: light rain
Temperature: 70.0 F (21.1 C)
Dew Point: 66.9 F (19.4 C)
Relative Humidity: 90%
Pressure (altimeter): 29.95 in. Hg (1014 hPa)
ob: KCIU 212256Z AUTO 07004KT 10SM -RA SCT033 BKN042 21/19 A2995 RMK AO2 SLP159 T02110194 PNO
cycle: 23

Station Type Date Time Source
KCIU TAF UTC NOAA

Error!


Example: see airport list